Anza, California
Current Conditions -  °F | °C
As of 3:53 AM on Wednesday 26 Nov 2014 (Local Time) from KPSP Reporting Station
Clear Clear  
Wind Chill: 51°   Ceiling: Unl
Heat Index: 51°   Visibility: 10mi
Dew Point: 20°   Wind: 8mph
Humidity: 29%   Direction: 320°NW
Pressure: 30.3"   Gusts: NA
Location:  33.55°N, 116.67°W
Report Text: KPSP 261153Z AUTO 32007KT 10SM CLR 11/M07 A3030 RMK AO2 SLP259 T01061067 10139 20100 55001 TSNO
Loading
Personal Weather Stations






























Interactive Weather Map New forecast layout! Learn more

10-Day Weather Forecast

Advertisements
Track Severe Weather on mobile